Lexa Maersk — OYYL2 — position and weather

sailwx.info

Track history (hours):
 
Tides and Currents Weather Stations Pressure Air Temp Water Temp Dewpoint Dewpoint Depression Visibility Wind Speed Wind Dir Waves Ship Positions

Lexa Maersk

Last reported at 2017-Feb-22 03:32 UTC. Time now 2017-Feb-22 04:27 UTC.
Position N 01°17' E 103°45'.

Length 265.8 m; beam 37.3 m; draft 14 m.

Type: Cargo ship. MMSI: 219979000.

Date/timePositionNaut miles runAvg speedWind from/ knotsBaromVisibWave heightAir tempDewpointWater temp
2017-Feb-22 03:32N 01°17' E 103°45'0 0.0
2017-Feb-22 02:26N 01°17' E 103°45'0 0.0
2017-Feb-22 01:32N 01°17' E 103°45'0 0.0
2017-Feb-22 00:32N 01°17' E 103°45'0 0.0
2017-Feb-21 23:32N 01°17' E 103°45'0 0.0
2017-Feb-21 22:32N 01°17' E 103°45'0 0.0
2017-Feb-21 21:33N 01°17' E 103°45'0 0.0
2017-Feb-21 20:34N 01°17' E 103°45'0 0.1
2017-Feb-21 19:33N 01°17' E 103°45'0 0.1
2017-Feb-21 18:33N 01°17' E 103°45'0 0.0
2017-Feb-21 17:33N 01°17' E 103°45'0 0.0
2017-Feb-21 16:33N 01°17' E 103°45'0 0.0
2017-Feb-21 15:32N 01°17' E 103°45'4 4.0
2017-Feb-21 14:33N 01°14' E 103°42'9 8.7
2017-Feb-21 13:31N 01°13' E 103°34'7 6.2
2017-Feb-21 12:20N 01°20' E 103°33'0 0.0
2017-Feb-20 13:24N 01°20' E 103°33'0 0.0
2017-Feb-20 12:20N 01°20' E 103°33'0 0.0
2017-Feb-20 11:23N 01°20' E 103°33'1 1.5
2017-Feb-20 10:27N 01°19' E 103°33'7 8.0
2017-Feb-20 09:31N 01°12' E 103°36'1111.1
2017-Feb-20 08:30N 01°10' E 103°47'1112.1
2017-Feb-20 07:33N 01°15' E 103°57'  
2017-Feb-18 02:00S 10°42' E 106°12'45619.0 200 / 81013.310.8 27.822.429.0
2017-Feb-17 02:00S 17°54' E 108°42'46718.7 200 / 101012.310.8 26.424.226.7
2017-Feb-16 01:00S 25°18' E 111°18'43618.2 160 / 101012.210.8 26.024.424.5
2017-Feb-15 01:00S 32°12' E 113°54'   160 / 241018.110.8 19.415.721.1
Track history (hours):
 
Tides and Currents Weather Stations Pressure Air Temp Water Temp Dewpoint Dewpoint Depression Visibility Wind Speed Wind Dir Waves Ship Positions

Lexa Maersk

Last reported at 2017-Feb-22 03:32 UTC. Time now 2017-Feb-22 04:27 UTC.
Position N 01°17' E 103°45'.

Length 265.8 m; beam 37.3 m; draft 14 m.

Type: Cargo ship. MMSI: 219979000.

Date/timePositionNaut miles runAvg speedWind from/ knotsBaromVisibWave heightAir tempDewpointWater temp
2017-Feb-22 03:32N 01°17' E 103°45'0 0.0
2017-Feb-22 02:26N 01°17' E 103°45'0 0.0
2017-Feb-22 01:32N 01°17' E 103°45'0 0.0
2017-Feb-22 00:32N 01°17' E 103°45'0 0.0
2017-Feb-21 23:32N 01°17' E 103°45'0 0.0
2017-Feb-21 22:32N 01°17' E 103°45'0 0.0
2017-Feb-21 21:33N 01°17' E 103°45'0 0.0
2017-Feb-21 20:34N 01°17' E 103°45'0 0.1
2017-Feb-21 19:33N 01°17' E 103°45'0 0.1
2017-Feb-21 18:33N 01°17' E 103°45'0 0.0
2017-Feb-21 17:33N 01°17' E 103°45'0 0.0
2017-Feb-21 16:33N 01°17' E 103°45'0 0.0
2017-Feb-21 15:32N 01°17' E 103°45'4 4.0
2017-Feb-21 14:33N 01°14' E 103°42'9 8.7
2017-Feb-21 13:31N 01°13' E 103°34'7 6.2
2017-Feb-21 12:20N 01°20' E 103°33'0 0.0
2017-Feb-20 13:24N 01°20' E 103°33'0 0.0
2017-Feb-20 12:20N 01°20' E 103°33'0 0.0
2017-Feb-20 11:23N 01°20' E 103°33'1 1.5
2017-Feb-20 10:27N 01°19' E 103°33'7 8.0
2017-Feb-20 09:31N 01°12' E 103°36'1111.1
2017-Feb-20 08:30N 01°10' E 103°47'1112.1
2017-Feb-20 07:33N 01°15' E 103°57'  
2017-Feb-18 02:00S 10°42' E 106°12'45619.0 200 / 81013.310.8 27.822.429.0
2017-Feb-17 02:00S 17°54' E 108°42'46718.7 200 / 101012.310.8 26.424.226.7
2017-Feb-16 01:00S 25°18' E 111°18'43618.2 160 / 101012.210.8 26.024.424.5
2017-Feb-15 01:00S 32°12' E 113°54'   160 / 241018.110.8 19.415.721.1

Dump ship's entire track history